This is the latest recevied weather packets stored in our database for station/object KJ4RDP-13. If no packets are shown the sender has not sent any weather packets the latest 10 day(s).
| Time | Temp. | Humidity | Pressure | Rain* | Wind** | Luminosity | Snow |
|---|---|---|---|---|---|---|---|
| 1777739144 | 12.22° C | 61% | 1013.1 hPa | 0 mm | - | 498 W/m² | - |
| 1777738842 | 12.22° C | 61% | 1013.1 hPa | 0 mm | - | 428 W/m² | - |
| 1777738538 | 11.67° C | 63% | 1013.1 hPa | 0 mm | - | 439 W/m² | - |
| 1777738236 | 11.67° C | 64% | 1012.8 hPa | 0 mm | - | 324 W/m² | - |
| 1777737934 | 11.11° C | 65% | 1013.1 hPa | 0 mm | - | 286 W/m² | - |
| 1777737632 | 10.56° C | 67% | 1013.5 hPa | 0 mm | - | 212 W/m² | - |
| 1777737330 | 10.56° C | 68% | 1013.5 hPa | 0 mm | - | 158 W/m² | - |
| 1777737027 | 10.56° C | 66% | 1013.5 hPa | 0 mm | - | 129 W/m² | - |
| 1777736723 | 10.56° C | 66% | 1013.5 hPa | 0 mm | - | 138 W/m² | - |
| 1777736095 | 10.56° C | 67% | 1013.5 hPa | 0 mm | - | 137 W/m² | - |
| 1777735792 | 10.56° C | 68% | 1013.5 hPa | 0 mm | - | 135 W/m² | - |
| 1777735490 | 10.56° C | 67% | 1013.5 hPa | 0 mm | - | 150 W/m² | - |
| 1777735187 | 10.56° C | 66% | 1013.5 hPa | 0 mm | - | 148 W/m² | - |
| 1777734884 | 10° C | 68% | 1013.8 hPa | 0 mm | - | 131 W/m² | - |
| 1777734581 | 10.56° C | 68% | 1013.8 hPa | 0 mm | - | 139 W/m² | - |
| 1777734278 | 10° C | 66% | 1013.5 hPa | 0 mm | - | 130 W/m² | - |
| 1777733974 | 10° C | 66% | 1013.5 hPa | 0 mm | - | 117 W/m² | - |
| 1777733671 | 10.56° C | 66% | 1013.5 hPa | 0 mm | - | 148 W/m² | - |
| 1777733367 | 10° C | 67% | 1013.5 hPa | 0 mm | - | 131 W/m² | - |
| 1777733064 | 10.56° C | 68% | 1013.5 hPa | 0 mm | - | 158 W/m² | - |
| 1777732760 | 10.56° C | 68% | 1013.1 hPa | 0 mm | - | 164 W/m² | - |
| 1777732457 | 10.56° C | 70% | 1013.5 hPa | 0 mm | - | 137 W/m² | - |
| 1777732155 | 10.56° C | 66% | 1013.1 hPa | 0 mm | - | 148 W/m² | - |
| 1777731852 | 10.56° C | 68% | 1013.1 hPa | 0 mm | - | 157 W/m² | - |
| 1777731549 | 10.56° C | 68% | 1013.1 hPa | 0 mm | - | 145 W/m² | - |
* Rain latest hour (hover to see other rain measurements)
** Current wind speed in m/s (hover to see current wind gust speed)